LATI/TIA METAR and TAF weather

Enter ICAO airport designator
Station Type Date Time Source
LATI METAR 2020/10/22 03:20 UTC NOAA

LATI 220320Z 16002KT CAVOK 07/06 Q1025 NOSIG


Station Type Date Time Source
LATI Decoded METAR 2020/10/22 03:20 UTC NOAA

Tirana, Albania (LATI) 41-20N 019-47E 90M
Oct 21, 2020 - 11:20 PM EDT / 2020.10.22 0320 UTC
Wind: from the SSE (160 degrees) at 2 MPH (2 KT):0
Visibility: greater than 7 mile(s):0
Temperature: 44 F (7 C)
Dew Point: 42 F (6 C)
Relative Humidity: 93%
Pressure (altimeter): 30.27 in. Hg (1025 hPa)
ob: LATI 220320Z 16002KT CAVOK 07/06 Q1025 NOSIG
cycle: 3

Station Type Date Time Source
LATI TAF 2020/10/21 18:10 UTC NOAA

TAF LATI 211700Z 2118/2218 16002KT CAVOK TX24/2212Z TN06/2205Z
TEMPO 2210/2216 34010KT

Example: see airport list